createdAt,value
2018-11-14T00:01:44.002Z,5.30
2018-11-14T00:04:14.647Z,5.35
2018-11-14T00:06:45.217Z,5.36
2018-11-14T00:09:30.531Z,5.41
2018-11-14T00:12:01.154Z,5.38
2018-11-14T00:14:31.606Z,5.40
2018-11-14T00:17:02.193Z,5.27
2018-11-14T00:19:32.775Z,5.29
2018-11-14T00:22:03.416Z,5.32
2018-11-14T00:24:34.053Z,5.35
2018-11-14T00:27:05.490Z,5.32
2018-11-14T00:29:36.052Z,5.35
2018-11-14T00:32:06.647Z,5.34
2018-11-14T00:34:37.302Z,5.35
2018-11-14T00:37:08.026Z,5.23
2018-11-14T00:39:38.566Z,5.19
2018-11-14T00:42:09.093Z,5.26
2018-11-14T00:44:39.648Z,5.28
2018-11-14T00:47:10.200Z,5.19
2018-11-14T00:49:40.769Z,5.08
2018-11-14T00:52:11.272Z,5.10
2018-11-14T00:54:43.287Z,5.06
2018-11-14T00:57:13.796Z,4.91
2018-11-14T00:59:44.334Z,4.91
2018-11-14T01:02:14.834Z,4.91
2018-11-14T01:04:45.354Z,4.90
2018-11-14T01:07:15.942Z,4.81
2018-11-14T01:09:46.503Z,4.83
2018-11-14T01:12:16.984Z,4.78
2018-11-14T01:14:47.505Z,4.75
2018-11-14T01:17:26.059Z,4.82
2018-11-14T01:19:56.446Z,4.83
2018-11-14T01:22:27.003Z,4.82
2018-11-14T01:24:57.523Z,4.85
2018-11-14T01:27:28.140Z,4.79
2018-11-14T01:29:58.673Z,4.80
2018-11-14T01:32:29.238Z,4.83
2018-11-14T01:34:59.925Z,4.88
2018-11-14T01:37:30.631Z,4.94
2018-11-14T01:40:01.045Z,4.99
2018-11-14T01:42:31.616Z,5.01
2018-11-14T01:45:07.531Z,5.05
2018-11-14T01:47:38.066Z,5.03
2018-11-14T01:50:09.769Z,5.03
2018-11-14T01:52:40.528Z,5.01
2018-11-14T01:55:13.290Z,5.01
2018-11-14T01:57:44.045Z,5.00
2018-11-14T02:00:16.602Z,4.98
2018-11-14T02:02:47.178Z,4.93
2018-11-14T02:05:17.877Z,4.93
2018-11-14T02:07:48.396Z,4.93
2018-11-14T02:10:19.976Z,4.94
2018-11-14T02:12:50.477Z,4.98
2018-11-14T02:15:22.187Z,4.97
2018-11-14T02:17:53.266Z,4.97
2018-11-14T02:20:23.854Z,4.86
2018-11-14T02:22:54.622Z,4.85
2018-11-14T02:25:25.227Z,4.70
2018-11-14T02:27:55.853Z,4.68
2018-11-14T02:30:26.411Z,4.63
2018-11-14T02:32:57.029Z,4.64
2018-11-14T02:35:27.483Z,4.64
2018-11-14T02:37:58.412Z,4.63
2018-11-14T02:40:28.911Z,4.55
2018-11-14T02:42:59.424Z,4.56
2018-11-14T02:45:30.066Z,4.47
2018-11-14T02:48:00.558Z,4.38
2018-11-14T02:50:31.113Z,4.36
2018-11-14T02:53:01.643Z,4.34
2018-11-14T02:55:32.162Z,4.40
2018-11-14T02:58:02.844Z,4.43
2018-11-14T03:00:33.364Z,4.50
2018-11-14T03:03:03.982Z,4.56
2018-11-14T03:05:34.582Z,4.54
2018-11-14T03:08:05.113Z,4.50
2018-11-14T03:10:35.655Z,4.53
2018-11-14T03:13:06.759Z,4.56
2018-11-14T03:15:37.314Z,4.49
2018-11-14T03:18:08.006Z,4.55
2018-11-14T03:20:38.483Z,4.57
2018-11-14T03:23:09.016Z,4.58
2018-11-14T03:25:39.497Z,4.54
2018-11-14T03:28:10.117Z,4.59
2018-11-14T03:30:40.810Z,4.59
2018-11-14T03:33:11.390Z,4.63
2018-11-14T03:35:46.849Z,4.64
2018-11-14T03:38:17.369Z,4.61
2018-11-14T03:40:47.931Z,4.56
2018-11-14T03:43:18.381Z,4.53
2018-11-14T03:45:48.911Z,4.58
2018-11-14T03:48:19.357Z,4.61
2018-11-14T03:50:50.020Z,4.66
2018-11-14T03:53:20.680Z,4.67
2018-11-14T03:55:51.328Z,4.62
2018-11-14T03:58:22.117Z,4.65
2018-11-14T04:00:52.672Z,4.69
2018-11-14T04:03:23.351Z,4.73
2018-11-14T04:05:54.038Z,4.78
2018-11-14T04:08:24.581Z,4.78
2018-11-14T04:10:55.145Z,4.85
2018-11-14T04:13:25.718Z,4.87
2018-11-14T04:15:56.312Z,4.89
2018-11-14T04:18:27.149Z,4.91
2018-11-14T04:20:57.798Z,4.91
2018-11-14T04:23:28.438Z,4.90
2018-11-14T04:25:59.036Z,4.94
2018-11-14T04:28:29.630Z,4.95
2018-11-14T04:31:00.190Z,4.94
2018-11-14T04:33:30.786Z,4.89
2018-11-14T04:36:01.382Z,4.83
2018-11-14T04:38:32.166Z,4.88
2018-11-14T04:41:02.762Z,4.95
2018-11-14T04:43:33.341Z,4.91
2018-11-14T04:46:04.643Z,4.95
2018-11-14T04:48:35.729Z,4.93
2018-11-14T04:51:06.702Z,4.89
2018-11-14T04:53:37.215Z,4.86
2018-11-14T04:56:08.152Z,4.79
2018-11-14T04:58:38.977Z,4.81
2018-11-14T05:01:09.470Z,4.84
2018-11-14T05:03:40.010Z,4.90
2018-11-14T05:06:10.542Z,4.84
2018-11-14T05:08:41.153Z,4.68
2018-11-14T05:11:11.663Z,4.82
2018-11-14T05:13:42.232Z,4.70
2018-11-14T05:16:12.795Z,4.76
2018-11-14T05:18:43.524Z,4.79
2018-11-14T05:21:14.106Z,4.85
2018-11-14T05:23:44.625Z,4.85
2018-11-14T05:26:15.153Z,4.90
2018-11-14T05:28:45.617Z,4.99
2018-11-14T05:31:16.159Z,5.00
2018-11-14T05:33:46.678Z,5.05
2018-11-14T05:36:17.259Z,5.12
2018-11-14T05:38:48.058Z,5.21
2018-11-14T05:41:18.629Z,5.27
2018-11-14T05:43:49.274Z,5.29
2018-11-14T05:46:19.893Z,5.38
2018-11-14T05:48:50.446Z,5.46
2018-11-14T05:51:21.022Z,5.53
2018-11-14T05:53:51.670Z,5.58
2018-11-14T05:56:22.149Z,5.57
2018-11-14T05:58:54.543Z,5.62
2018-11-14T06:01:25.070Z,5.63
2018-11-14T06:03:55.662Z,5.72
2018-11-14T06:06:26.220Z,5.74
2018-11-14T06:08:56.840Z,5.77
2018-11-14T06:11:27.468Z,5.82
2018-11-14T06:13:57.984Z,5.96
2018-11-14T06:16:28.584Z,6.09
2018-11-14T06:18:59.283Z,6.13
2018-11-14T06:21:29.772Z,6.24
2018-11-14T06:24:00.336Z,6.36
2018-11-14T06:26:30.906Z,6.41
2018-11-14T06:29:01.396Z,6.55
2018-11-14T06:31:31.941Z,6.55
2018-11-14T06:34:02.447Z,6.65
2018-11-14T06:36:33.100Z,6.65
2018-11-14T06:39:04.096Z,6.66
2018-11-14T06:41:34.721Z,6.68
2018-11-14T06:44:05.258Z,6.72
2018-11-14T06:46:35.861Z,6.74
2018-11-14T06:49:06.606Z,6.77
2018-11-14T06:51:37.220Z,6.77
2018-11-14T06:54:07.888Z,6.80
2018-11-14T06:56:38.568Z,6.85
2018-11-14T06:59:09.564Z,6.83
2018-11-14T07:01:40.135Z,6.87
2018-11-14T07:04:10.783Z,6.96
2018-11-14T07:06:41.360Z,7.01
2018-11-14T07:09:13.329Z,7.05
2018-11-14T07:11:43.876Z,7.03
2018-11-14T07:14:14.498Z,7.02
2018-11-14T07:16:45.151Z,7.07
2018-11-14T07:19:15.935Z,7.18
2018-11-14T07:21:46.422Z,7.14
2018-11-14T07:24:17.144Z,7.18
2018-11-14T07:26:47.730Z,7.21
2018-11-14T07:29:18.290Z,7.21
2018-11-14T07:31:48.979Z,7.23
2018-11-14T07:34:19.609Z,7.33
2018-11-14T07:36:50.243Z,7.35
2018-11-14T07:39:21.108Z,7.42
2018-11-14T07:41:51.655Z,7.45
2018-11-14T07:44:22.189Z,7.41
2018-11-14T07:46:52.680Z,7.45
2018-11-14T07:49:23.267Z,7.51
2018-11-14T07:51:53.870Z,7.51
2018-11-14T07:54:24.596Z,7.54
2018-11-14T07:56:55.102Z,7.71
2018-11-14T07:59:25.843Z,7.68
2018-11-14T08:01:56.419Z,7.65
2018-11-14T08:04:27.100Z,7.69
2018-11-14T08:06:57.654Z,7.68
2018-11-14T08:09:28.188Z,7.72
2018-11-14T08:11:58.703Z,7.80
2018-11-14T08:14:29.344Z,7.78
2018-11-14T08:17:00.217Z,7.77
2018-11-14T08:19:31.937Z,7.77
2018-11-14T08:22:02.557Z,7.85
2018-11-14T08:24:33.071Z,8.04
2018-11-14T08:27:03.659Z,8.07
2018-11-14T08:29:34.162Z,8.12
2018-11-14T08:32:04.630Z,8.06
2018-11-14T08:34:35.271Z,8.15
2018-11-14T08:37:05.963Z,8.24
2018-11-14T08:39:36.671Z,8.37
2018-11-14T08:42:07.557Z,8.43
2018-11-14T08:44:38.167Z,8.39
2018-11-14T08:47:08.764Z,8.41
2018-11-14T08:49:39.267Z,8.56
2018-11-14T08:52:09.875Z,8.87
2018-11-14T08:54:40.460Z,8.97
2018-11-14T08:57:10.968Z,8.94
2018-11-14T08:59:41.631Z,8.99
2018-11-14T09:02:12.279Z,9.05
2018-11-14T09:04:42.893Z,9.02
2018-11-14T09:07:13.426Z,9.00
2018-11-14T09:09:44.110Z,9.02
2018-11-14T09:12:14.652Z,8.99
2018-11-14T09:14:45.395Z,8.89
2018-11-14T09:17:16.080Z,8.94
2018-11-14T09:19:46.735Z,8.99
2018-11-14T09:22:17.339Z,9.03
2018-11-14T09:24:47.977Z,8.90
2018-11-14T09:27:18.686Z,8.92
2018-11-14T09:29:49.287Z,8.87
2018-11-14T09:32:19.831Z,8.91
2018-11-14T09:34:50.645Z,8.92
2018-11-14T09:37:21.387Z,9.02
2018-11-14T09:39:52.218Z,9.03
2018-11-14T09:42:22.728Z,9.04
2018-11-14T09:44:53.663Z,9.09
2018-11-14T09:47:24.202Z,9.16
2018-11-14T09:49:54.721Z,9.22
2018-11-14T09:52:25.328Z,9.29
2018-11-14T09:54:55.794Z,9.31
2018-11-14T09:57:26.554Z,9.40
2018-11-14T09:59:57.223Z,9.37
2018-11-14T10:02:27.756Z,9.32
2018-11-14T10:04:58.409Z,9.38
2018-11-14T10:07:28.849Z,9.40
2018-11-14T10:09:59.364Z,9.53
2018-11-14T10:12:29.896Z,9.53
2018-11-14T10:15:00.502Z,9.42
2018-11-14T10:17:31.053Z,9.35
2018-11-14T10:20:01.841Z,9.34
2018-11-14T10:22:32.310Z,9.37
2018-11-14T10:25:02.878Z,9.35
2018-11-14T10:27:33.436Z,9.32
2018-11-14T10:30:04.160Z,9.24
2018-11-14T10:32:34.662Z,9.09
2018-11-14T10:35:05.292Z,9.09
2018-11-14T10:37:36.948Z,9.07
2018-11-14T10:40:09.402Z,9.04
2018-11-14T10:42:40.777Z,9.11
2018-11-14T10:45:13.237Z,9.20
2018-11-14T10:47:43.813Z,9.26
2018-11-14T10:50:16.638Z,9.24
2018-11-14T10:52:47.292Z,9.36
2018-11-14T10:55:18.298Z,9.37
2018-11-14T10:57:48.819Z,9.38
2018-11-14T11:00:27.465Z,9.43
2018-11-14T11:03:03.340Z,9.33
2018-11-14T11:05:44.475Z,9.37
2018-11-14T11:08:20.377Z,9.44
2018-11-14T11:10:55.839Z,9.35
2018-11-14T11:13:31.315Z,9.46
2018-11-14T11:16:06.592Z,9.50
2018-11-14T11:18:37.311Z,9.52
2018-11-14T11:21:07.909Z,9.53
2018-11-14T11:23:38.711Z,9.58
2018-11-14T11:26:09.170Z,9.58
2018-11-14T11:28:39.870Z,9.58
2018-11-14T11:31:10.451Z,9.61
2018-11-14T11:33:41.099Z,9.58
2018-11-14T11:36:11.600Z,9.62
2018-11-14T11:38:42.162Z,9.60
2018-11-14T11:41:12.779Z,9.50
2018-11-14T11:43:43.349Z,9.52
2018-11-14T11:46:13.859Z,9.56
2018-11-14T11:48:44.308Z,9.60
2018-11-14T11:51:14.948Z,9.70
2018-11-14T11:53:45.517Z,9.74
2018-11-14T11:56:16.132Z,9.81
2018-11-14T11:58:46.777Z,9.90
2018-11-14T12:01:17.658Z,9.96
2018-11-14T12:03:48.198Z,10.01
2018-11-14T12:06:18.865Z,9.82
2018-11-14T12:08:49.386Z,9.83
2018-11-14T12:11:19.971Z,9.87
2018-11-14T12:13:50.751Z,9.86
2018-11-14T12:16:21.343Z,9.88
2018-11-14T12:18:51.853Z,9.82
2018-11-14T12:21:22.398Z,9.83
2018-11-14T12:23:52.903Z,9.87
2018-11-14T12:26:23.446Z,9.86
2018-11-14T12:28:54.102Z,9.78
2018-11-14T12:31:24.684Z,9.73
2018-11-14T12:33:55.215Z,9.72
2018-11-14T12:36:25.794Z,9.77
2018-11-14T12:38:56.293Z,9.73
2018-11-14T12:41:26.979Z,9.65
2018-11-14T12:43:57.594Z,9.60
2018-11-14T12:46:28.263Z,9.60
2018-11-14T12:48:58.810Z,9.58
2018-11-14T12:51:29.351Z,9.63
2018-11-14T12:53:59.944Z,9.50
2018-11-14T12:56:30.546Z,9.45
2018-11-14T12:59:01.123Z,9.28
2018-11-14T13:01:31.867Z,9.35
2018-11-14T13:04:02.453Z,9.34
2018-11-14T13:06:33.011Z,9.28
2018-11-14T13:09:03.946Z,9.28
2018-11-14T13:11:34.503Z,9.25
2018-11-14T13:14:05.515Z,9.31
2018-11-14T13:16:36.180Z,9.27
2018-11-14T13:19:07.080Z,9.31
2018-11-14T13:21:37.885Z,9.28
2018-11-14T13:24:08.408Z,9.17
2018-11-14T13:26:38.949Z,9.19
2018-11-14T13:29:09.567Z,9.17
2018-11-14T13:31:40.172Z,9.23
2018-11-14T13:34:10.717Z,9.28
2018-11-14T13:36:41.188Z,9.27
2018-11-14T13:39:12.315Z,9.20
2018-11-14T13:41:42.979Z,9.16
2018-11-14T13:44:13.494Z,9.14
2018-11-14T13:46:44.059Z,9.10
2018-11-14T13:49:14.801Z,9.11
2018-11-14T13:51:45.125Z,9.03
2018-11-14T13:54:17.032Z,9.00
2018-11-14T13:56:47.598Z,8.82
2018-11-14T13:59:18.113Z,8.80
2018-11-14T14:01:48.748Z,8.76
2018-11-14T14:04:19.320Z,8.73
2018-11-14T14:06:49.937Z,8.78
2018-11-14T14:09:21.310Z,8.84
2018-11-14T14:11:51.962Z,8.80
2018-11-14T14:14:22.560Z,8.93
2018-11-14T14:16:53.079Z,8.84
2018-11-14T14:19:23.727Z,8.81
2018-11-14T14:21:54.656Z,8.76
2018-11-14T14:24:25.325Z,8.69
2018-11-14T14:26:55.812Z,8.83
2018-11-14T14:29:26.406Z,8.77
2018-11-14T14:31:56.986Z,8.71
2018-11-14T14:34:27.556Z,8.63
2018-11-14T14:36:58.069Z,8.51
2018-11-14T14:39:28.628Z,8.46
2018-11-14T14:42:00.244Z,8.59
2018-11-14T14:44:30.819Z,8.60
2018-11-14T14:47:01.343Z,8.56
2018-11-14T14:49:33.944Z,8.60
2018-11-14T14:52:05.288Z,8.64
2018-11-14T14:54:39.120Z,8.71
2018-11-14T14:57:10.409Z,8.80
2018-11-14T14:59:42.804Z,8.74
2018-11-14T15:02:14.434Z,8.79
2018-11-14T15:04:50.178Z,8.77
2018-11-14T15:07:28.544Z,8.80
2018-11-14T15:10:21.616Z,8.79
2018-11-14T15:12:55.175Z,8.80
2018-11-14T15:15:27.306Z,8.72
2018-11-14T15:17:59.125Z,8.72
2018-11-14T15:20:38.395Z,8.64
2018-11-14T15:23:11.085Z,8.72
2018-11-14T15:25:41.687Z,8.65
2018-11-14T15:28:12.213Z,8.64
2018-11-14T15:30:42.834Z,8.69
2018-11-14T15:33:13.376Z,8.57
2018-11-14T15:35:44.154Z,8.63
2018-11-14T15:38:14.773Z,8.65
2018-11-14T15:40:45.460Z,8.69
2018-11-14T15:43:16.329Z,8.69
2018-11-14T15:45:46.927Z,8.71
2018-11-14T15:48:17.445Z,8.70
2018-11-14T15:50:48.071Z,8.72
2018-11-14T15:53:18.709Z,8.69
2018-11-14T15:55:49.291Z,8.63
2018-11-14T15:58:19.904Z,8.65
2018-11-14T16:00:50.480Z,8.62
2018-11-14T16:03:21.109Z,8.62
2018-11-14T16:05:51.655Z,8.58
2018-11-14T16:08:22.251Z,8.55
2018-11-14T16:10:52.992Z,8.49
2018-11-14T16:13:23.658Z,8.48
2018-11-14T16:15:54.259Z,8.56
2018-11-14T16:18:24.893Z,8.59
2018-11-14T16:20:55.524Z,8.55
2018-11-14T16:23:26.285Z,8.58
2018-11-14T16:25:56.961Z,8.62
2018-11-14T16:28:27.593Z,8.64
2018-11-14T16:30:58.245Z,8.66
2018-11-14T16:33:29.264Z,8.62
2018-11-14T16:35:59.944Z,8.59
2018-11-14T16:38:30.643Z,8.62
2018-11-14T16:41:01.264Z,8.64
2018-11-14T16:43:32.026Z,8.68
2018-11-14T16:46:02.607Z,8.60
2018-11-14T16:48:33.321Z,8.62
2018-11-14T16:51:06.067Z,8.64
2018-11-14T16:53:38.143Z,8.59
2018-11-14T16:56:09.351Z,8.60
2018-11-14T16:58:39.974Z,8.60
2018-11-14T17:01:10.887Z,8.62
2018-11-14T17:03:41.788Z,8.63
2018-11-14T17:06:12.784Z,8.64
2018-11-14T17:08:43.431Z,8.58
2018-11-14T17:11:14.150Z,8.58
2018-11-14T17:13:44.733Z,8.61
2018-11-14T17:16:15.416Z,8.59
2018-11-14T17:18:46.115Z,8.63
2018-11-14T17:21:16.726Z,8.59
2018-11-14T17:23:47.548Z,8.58
2018-11-14T17:26:18.371Z,8.59
2018-11-14T17:28:48.982Z,8.65
2018-11-14T17:31:19.668Z,8.62
2018-11-14T17:33:50.280Z,8.57
2018-11-14T17:36:20.850Z,8.57
2018-11-14T17:38:51.492Z,8.50
2018-11-14T17:41:22.253Z,8.54
2018-11-14T17:43:54.174Z,8.54
2018-11-14T17:46:25.074Z,8.55
2018-11-14T17:48:55.873Z,8.49
2018-11-14T17:51:26.454Z,8.52
2018-11-14T17:53:57.007Z,8.51
2018-11-14T17:56:27.740Z,8.36
2018-11-14T17:58:58.446Z,8.36
2018-11-14T18:01:28.988Z,8.38
2018-11-14T18:03:59.631Z,8.33
2018-11-14T18:06:30.295Z,8.28
2018-11-14T18:09:00.851Z,8.22
2018-11-14T18:11:31.672Z,8.24
2018-11-14T18:14:02.218Z,8.30
2018-11-14T18:16:32.879Z,8.20
2018-11-14T18:19:03.496Z,8.24
2018-11-14T18:21:34.154Z,8.29
2018-11-14T18:24:04.991Z,8.30
2018-11-14T18:26:35.638Z,8.26
2018-11-14T18:29:06.373Z,8.21
2018-11-14T18:31:37.053Z,8.17
2018-11-14T18:34:07.591Z,8.16
2018-11-14T18:36:38.245Z,8.21
2018-11-14T18:39:12.112Z,8.13
2018-11-14T18:41:43.033Z,8.13
2018-11-14T18:44:13.902Z,8.08
2018-11-14T18:46:44.479Z,8.09
2018-11-14T18:49:15.051Z,8.11
2018-11-14T18:51:45.554Z,8.14
2018-11-14T18:54:16.060Z,8.19
2018-11-14T18:56:46.550Z,8.14
2018-11-14T18:59:17.145Z,8.08
2018-11-14T19:01:47.776Z,8.06
2018-11-14T19:04:18.503Z,8.05
2018-11-14T19:06:49.263Z,8.07
2018-11-14T19:09:19.791Z,8.00
2018-11-14T19:11:50.435Z,7.96
2018-11-14T19:14:21.010Z,8.01
2018-11-14T19:16:51.495Z,8.03
2018-11-14T19:19:22.095Z,8.04
2018-11-14T19:21:52.714Z,8.04
2018-11-14T19:24:23.638Z,8.02
2018-11-14T19:26:54.213Z,7.98
2018-11-14T19:29:24.833Z,7.96
2018-11-14T19:31:55.389Z,8.01
2018-11-14T19:34:25.869Z,7.94
2018-11-14T19:36:56.395Z,7.78
2018-11-14T19:39:26.873Z,7.77
2018-11-14T19:41:57.382Z,7.83
2018-11-14T19:44:28.046Z,7.81
2018-11-14T19:46:58.614Z,7.87
2018-11-14T19:49:29.274Z,7.84
2018-11-14T19:51:59.723Z,7.86
2018-11-14T19:54:30.287Z,7.94
2018-11-14T19:57:00.734Z,8.00
2018-11-14T19:59:31.223Z,7.95
2018-11-14T20:02:01.808Z,7.92
2018-11-14T20:04:32.706Z,7.92
2018-11-14T20:07:03.347Z,7.92
2018-11-14T20:09:33.878Z,7.95
2018-11-14T20:12:04.522Z,7.95
2018-11-14T20:14:35.147Z,7.95
2018-11-14T20:17:05.861Z,7.98
2018-11-14T20:19:36.453Z,7.96
2018-11-14T20:22:07.102Z,7.97
2018-11-14T20:24:37.817Z,7.95
2018-11-14T20:27:08.439Z,7.99
2018-11-14T20:29:39.014Z,7.88
2018-11-14T20:32:09.678Z,7.92
2018-11-14T20:34:41.076Z,7.96
2018-11-14T20:37:11.836Z,7.96
2018-11-14T20:39:42.464Z,7.94
2018-11-14T20:42:13.262Z,7.95
2018-11-14T20:44:43.854Z,7.93
2018-11-14T20:47:14.449Z,7.85
2018-11-14T20:49:45.048Z,7.82
2018-11-14T20:52:15.517Z,7.83
2018-11-14T20:54:46.150Z,7.73
2018-11-14T20:57:16.789Z,7.83
2018-11-14T20:59:47.370Z,7.84
2018-11-14T21:02:18.140Z,7.79
2018-11-14T21:04:49.093Z,7.83
2018-11-14T21:07:19.619Z,7.68
2018-11-14T21:09:50.210Z,7.66
2018-11-14T21:12:20.777Z,7.73
2018-11-14T21:14:51.388Z,7.72
2018-11-14T21:17:21.985Z,7.69
2018-11-14T21:19:53.151Z,7.75
2018-11-14T21:22:23.744Z,7.73
2018-11-14T21:24:54.491Z,7.62
2018-11-14T21:27:25.118Z,7.69
2018-11-14T21:29:55.702Z,7.59
2018-11-14T21:32:26.326Z,7.61
2018-11-14T21:34:56.909Z,7.63
2018-11-14T21:37:27.627Z,7.59
2018-11-14T21:39:58.246Z,7.62
2018-11-14T21:42:28.879Z,7.66
2018-11-14T21:44:59.636Z,7.56
2018-11-14T21:47:35.951Z,7.51
2018-11-14T21:50:06.759Z,7.41
2018-11-14T21:52:39.358Z,7.35
2018-11-14T21:55:11.226Z,7.25
2018-11-14T21:57:42.015Z,7.24
2018-11-14T22:00:17.591Z,7.28
2018-11-14T22:02:49.660Z,7.33
2018-11-14T22:05:20.528Z,7.28
2018-11-14T22:07:51.136Z,7.29
2018-11-14T22:10:23.445Z,7.18
2018-11-14T22:12:54.328Z,7.23
2018-11-14T22:15:25.900Z,7.10
2018-11-14T22:17:56.455Z,7.08
2018-11-14T22:20:27.882Z,7.14
2018-11-14T22:22:58.577Z,7.12
2018-11-14T22:25:30.428Z,7.17
2018-11-14T22:28:01.268Z,7.26
2018-11-14T22:30:33.962Z,7.14
2018-11-14T22:33:04.717Z,7.18
2018-11-14T22:35:38.886Z,7.24
2018-11-14T22:38:21.793Z,7.15
2018-11-14T22:40:56.936Z,7.13
2018-11-14T22:43:27.731Z,7.10
2018-11-14T22:46:12.738Z,7.02
2018-11-14T22:48:43.457Z,7.04
2018-11-14T22:51:14.059Z,7.04
2018-11-14T22:53:45.710Z,7.01
2018-11-14T22:56:24.569Z,6.96
2018-11-14T22:58:55.355Z,6.94
2018-11-14T23:01:25.935Z,6.95
2018-11-14T23:03:56.531Z,6.87
2018-11-14T23:06:27.423Z,6.92
2018-11-14T23:08:57.994Z,6.80
2018-11-14T23:11:28.609Z,6.84
2018-11-14T23:13:59.209Z,6.91
2018-11-14T23:16:29.837Z,6.86
2018-11-14T23:19:00.435Z,6.86
2018-11-14T23:21:31.028Z,6.80
2018-11-14T23:24:01.748Z,6.75
2018-11-14T23:26:32.821Z,6.63
2018-11-14T23:29:03.492Z,6.67
2018-11-14T23:31:34.109Z,6.62
2018-11-14T23:34:04.742Z,6.51
2018-11-14T23:36:35.318Z,6.52
2018-11-14T23:39:08.301Z,6.48
2018-11-14T23:41:38.870Z,6.52
2018-11-14T23:44:09.531Z,6.53
2018-11-14T23:46:40.118Z,6.42
2018-11-14T23:49:10.709Z,6.43
2018-11-14T23:51:41.329Z,6.42
2018-11-14T23:54:12.008Z,6.40
2018-11-14T23:56:42.552Z,6.34
2018-11-14T23:59:13.180Z,6.23
